Terminal Aerodrome Forecast
Issued by NWS

Home | Current Version | Previous Version | Text Only | Print | Product List | Glossary On
Versions: 1 2 3 4 5 6 7 8 9 10 11 12 13 14 15 16 17 18 19 20 21 22 23 24
547
FTUS46 KLOX 180903 AAA
TAFLAX
TAF AMD
KLAX 180903Z 1809/1912 VRB03KT P6SM SCT008
     FM181200 VRB03KT 6SM BR VCFG SCT004
     FM181400 03005KT P6SM SCT008
     FM181600 27005KT P6SM SCT250
     FM182000 27010KT P6SM SCT250
     FM190300 26005KT P6SM SCT250
     FM190800 VRB03KT P6SM SKC=

USA.gov is the U.S. government's official web portal to all federal, state and local government web resources and services.